Terminal Aerodrome Forecast
Issued by NWS

Home | Current Version | Previous Version | Text Only | Print | Product List | Glossary Off
Versions: 1 2 3 4 5 6 7 8 9 10 11 12 13

000
FTUS45 KGGW 101127
TAFSDY
TAF
KSDY 101127Z 1012/1112 28015G25KT P6SM SCT150 WS020/32040KT
     FM101400 27010KT P6SM SCT150
     FM110000 28012G20KT P6SM FEW170 WS020/30040KT
     FM110600 30020G30KT P6SM BKN040
     FM110900 30015G24KT P6SM BKN029=

USA.gov is the U.S. government's official web portal to all federal, state and local government web resources and services.